sensor_id;sensor_type;location;lat;lon;timestamp;pressure;altitude;pressure_sealevel;temperature;humidity
75146;BME280;63641;46.526;24.612;2022-11-23T00:01:22;96085.25;;;2.39;69.84
75146;BME280;63641;46.526;24.612;2022-11-23T00:03:51;96089.81;;;2.49;69.54
75146;BME280;63641;46.526;24.612;2022-11-23T00:06:19;96096.00;;;2.60;69.12
75146;BME280;63641;46.526;24.612;2022-11-23T00:08:47;96094.16;;;2.65;68.80
75146;BME280;63641;46.526;24.612;2022-11-23T00:11:15;96092.88;;;2.73;68.69
75146;BME280;63641;46.526;24.612;2022-11-23T00:13:42;96083.78;;;2.69;68.87
75146;BME280;63641;46.526;24.612;2022-11-23T00:16:12;96088.31;;;2.74;68.88
75146;BME280;63641;46.526;24.612;2022-11-23T00:18:39;96085.09;;;2.72;68.95
75146;BME280;63641;46.526;24.612;2022-11-23T00:21:10;96083.50;;;2.71;69.06
75146;BME280;63641;46.526;24.612;2022-11-23T00:23:37;96084.06;;;2.73;68.88
75146;BME280;63641;46.526;24.612;2022-11-23T00:26:06;96079.50;;;2.73;69.21
75146;BME280;63641;46.526;24.612;2022-11-23T00:28:33;96071.75;;;2.72;68.98
75146;BME280;63641;46.526;24.612;2022-11-23T00:31:03;96070.16;;;2.76;69.01
75146;BME280;63641;46.526;24.612;2022-11-23T00:33:29;96062.97;;;2.76;69.15
75146;BME280;63641;46.526;24.612;2022-11-23T00:36:00;96061.63;;;2.79;69.25
75146;BME280;63641;46.526;24.612;2022-11-23T00:38:28;96043.44;;;2.71;69.09
75146;BME280;63641;46.526;24.612;2022-11-23T00:40:59;96054.13;;;2.71;69.44
75146;BME280;63641;46.526;24.612;2022-11-23T00:43:27;96038.56;;;2.52;69.25
75146;BME280;63641;46.526;24.612;2022-11-23T00:46:25;96073.88;;;2.70;69.39
75146;BME280;63641;46.526;24.612;2022-11-23T00:48:54;96073.63;;;2.71;69.35
75146;BME280;63641;46.526;24.612;2022-11-23T00:51:27;96055.19;;;2.70;69.04
75146;BME280;63641;46.526;24.612;2022-11-23T00:53:54;96062.69;;;2.78;69.11
75146;BME280;63641;46.526;24.612;2022-11-23T00:56:21;96072.84;;;2.81;68.98
75146;BME280;63641;46.526;24.612;2022-11-23T00:58:52;96073.94;;;2.85;68.81
75146;BME280;63641;46.526;24.612;2022-11-23T01:01:22;96071.00;;;2.86;69.05
75146;BME280;63641;46.526;24.612;2022-11-23T01:03:53;96056.31;;;2.84;68.90
75146;BME280;63641;46.526;24.612;2022-11-23T01:06:24;96058.97;;;2.89;68.90
75146;BME280;63641;46.526;24.612;2022-11-23T01:08:59;96060.31;;;2.86;68.95
75146;BME280;63641;46.526;24.612;2022-11-23T01:11:29;96067.56;;;2.91;69.33
75146;BME280;63641;46.526;24.612;2022-11-23T01:13:57;96080.91;;;2.96;69.29
75146;BME280;63641;46.526;24.612;2022-11-23T01:16:26;96075.84;;;3.00;68.97
75146;BME280;63641;46.526;24.612;2022-11-23T01:18:58;96073.44;;;3.03;68.83
75146;BME280;63641;46.526;24.612;2022-11-23T01:21:27;96061.72;;;3.09;68.73
75146;BME280;63641;46.526;24.612;2022-11-23T01:23:54;96057.97;;;3.10;68.50
75146;BME280;63641;46.526;24.612;2022-11-23T01:26:21;96059.56;;;3.17;68.31
75146;BME280;63641;46.526;24.612;2022-11-23T01:28:48;96070.28;;;3.22;68.44
75146;BME280;63641;46.526;24.612;2022-11-23T01:31:17;96056.91;;;3.22;68.38
75146;BME280;63641;46.526;24.612;2022-11-23T01:33:45;96049.69;;;3.27;68.40
75146;BME280;63641;46.526;24.612;2022-11-23T01:36:14;96052.91;;;3.34;68.14
75146;BME280;63641;46.526;24.612;2022-11-23T01:38:42;96047.84;;;3.38;68.47
75146;BME280;63641;46.526;24.612;2022-11-23T01:41:12;96057.19;;;3.41;68.36
75146;BME280;63641;46.526;24.612;2022-11-23T01:43:40;96046.22;;;3.42;68.50
75146;BME280;63641;46.526;24.612;2022-11-23T01:46:08;96035.28;;;3.44;68.88
75146;BME280;63641;46.526;24.612;2022-11-23T01:51:32;96019.75;;;3.46;69.12
75146;BME280;63641;46.526;24.612;2022-11-23T01:53:59;96000.78;;;3.37;69.20
75146;BME280;63641;46.526;24.612;2022-11-23T01:56:30;96005.84;;;3.49;69.58
75146;BME280;63641;46.526;24.612;2022-11-23T01:59:00;95992.22;;;3.45;69.39
75146;BME280;63641;46.526;24.612;2022-11-23T02:01:27;96014.16;;;3.52;69.08
75146;BME280;63641;46.526;24.612;2022-11-23T02:03:55;96027.00;;;3.50;69.02
75146;BME280;63641;46.526;24.612;2022-11-23T02:06:24;96009.88;;;3.46;69.25
75146;BME280;63641;46.526;24.612;2022-11-23T02:08:51;96001.84;;;3.41;69.52
75146;BME280;63641;46.526;24.612;2022-11-23T02:11:19;96010.16;;;3.39;69.57
75146;BME280;63641;46.526;24.612;2022-11-23T02:13:47;96012.81;;;3.39;69.47
75146;BME280;63641;46.526;24.612;2022-11-23T02:16:16;96009.06;;;3.41;69.48
75146;BME280;63641;46.526;24.612;2022-11-23T02:18:46;96006.69;;;3.39;69.30
75146;BME280;63641;46.526;24.612;2022-11-23T02:21:14;96010.66;;;3.42;69.43
75146;BME280;63641;46.526;24.612;2022-11-23T02:24:01;96006.94;;;3.43;69.40
75146;BME280;63641;46.526;24.612;2022-11-23T02:26:33;96001.31;;;3.44;69.13
75146;BME280;63641;46.526;24.612;2022-11-23T02:31:27;96015.47;;;3.50;69.70
75146;BME280;63641;46.526;24.612;2022-11-23T02:33:54;96027.50;;;3.52;69.57
75146;BME280;63641;46.526;24.612;2022-11-23T02:39:27;96000.78;;;3.57;69.32
75146;BME280;63641;46.526;24.612;2022-11-23T02:41:56;95989.25;;;3.57;69.96
75146;BME280;63641;46.526;24.612;2022-11-23T02:47:05;95968.44;;;3.54;69.97
75146;BME280;63641;46.526;24.612;2022-11-23T02:49:33;95981.53;;;3.55;69.76
75146;BME280;63641;46.526;24.612;2022-11-23T02:52:00;95987.69;;;3.61;69.41
75146;BME280;63641;46.526;24.612;2022-11-23T02:54:28;95998.91;;;3.63;69.26
75146;BME280;63641;46.526;24.612;2022-11-23T02:56:55;95999.44;;;3.65;69.20
75146;BME280;63641;46.526;24.612;2022-11-23T02:59:22;95975.09;;;3.61;69.13
75146;BME280;63641;46.526;24.612;2022-11-23T03:01:48;95980.16;;;3.68;69.46
75146;BME280;63641;46.526;24.612;2022-11-23T03:04:15;95977.22;;;3.70;69.45
75146;BME280;63641;46.526;24.612;2022-11-23T03:06:42;95984.72;;;3.73;69.44
75146;BME280;63641;46.526;24.612;2022-11-23T03:09:11;95985.75;;;3.72;69.57
75146;BME280;63641;46.526;24.612;2022-11-23T03:11:38;95980.97;;;3.69;69.58
75146;BME280;63641;46.526;24.612;2022-11-23T03:14:04;95978.56;;;3.72;69.50
75146;BME280;63641;46.526;24.612;2022-11-23T03:16:31;95987.09;;;3.74;69.51
75146;BME280;63641;46.526;24.612;2022-11-23T03:18:59;95985.22;;;3.75;69.45
75146;BME280;63641;46.526;24.612;2022-11-23T03:21:26;95978.81;;;3.76;69.59
75146;BME280;63641;46.526;24.612;2022-11-23T03:23:54;95963.03;;;3.74;69.82
75146;BME280;63641;46.526;24.612;2022-11-23T03:26:21;95966.00;;;3.73;69.78
75146;BME280;63641;46.526;24.612;2022-11-23T03:28:48;95955.81;;;3.75;69.93
75146;BME280;63641;46.526;24.612;2022-11-23T03:31:15;95964.88;;;3.79;69.94
75146;BME280;63641;46.526;24.612;2022-11-23T03:33:41;95966.50;;;3.80;70.21
75146;BME280;63641;46.526;24.612;2022-11-23T03:36:08;95977.22;;;3.80;69.92
75146;BME280;63641;46.526;24.612;2022-11-23T03:38:35;95970.25;;;3.74;69.91
75146;BME280;63641;46.526;24.612;2022-11-23T03:41:02;95967.59;;;3.74;70.08
75146;BME280;63641;46.526;24.612;2022-11-23T03:43:30;95972.41;;;3.77;69.85
75146;BME280;63641;46.526;24.612;2022-11-23T03:45:57;95971.31;;;3.78;70.06
75146;BME280;63641;46.526;24.612;2022-11-23T03:48:24;95990.31;;;3.76;70.07
75146;BME280;63641;46.526;24.612;2022-11-23T03:50:51;95983.09;;;3.72;70.11
75146;BME280;63641;46.526;24.612;2022-11-23T03:53:17;95985.75;;;3.72;69.84
75146;BME280;63641;46.526;24.612;2022-11-23T03:55:47;95974.00;;;3.68;70.05
75146;BME280;63641;46.526;24.612;2022-11-23T03:58:14;95969.22;;;3.65;70.15
75146;BME280;63641;46.526;24.612;2022-11-23T04:00:42;95964.66;;;3.65;69.93
75146;BME280;63641;46.526;24.612;2022-11-23T04:03:09;95951.03;;;3.56;70.06
75146;BME280;63641;46.526;24.612;2022-11-23T04:05:35;95956.91;;;3.53;70.11
75146;BME280;63641;46.526;24.612;2022-11-23T04:08:02;95949.97;;;3.47;69.89
75146;BME280;63641;46.526;24.612;2022-11-23T04:10:29;95950.50;;;3.49;70.21
75146;BME280;63641;46.526;24.612;2022-11-23T04:12:56;95952.66;;;3.47;69.81
75146;BME280;63641;46.526;24.612;2022-11-23T04:15:23;95960.69;;;3.47;69.77
75146;BME280;63641;46.526;24.612;2022-11-23T04:17:50;95964.94;;;3.48;70.08
75146;BME280;63641;46.526;24.612;2022-11-23T04:20:16;95962.28;;;3.48;69.74
75146;BME280;63641;46.526;24.612;2022-11-23T04:22:43;95957.75;;;3.44;69.77
75146;BME280;63641;46.526;24.612;2022-11-23T04:25:10;95951.06;;;3.46;69.87
75146;BME280;63641;46.526;24.612;2022-11-23T04:27:37;95948.91;;;3.43;70.09
75146;BME280;63641;46.526;24.612;2022-11-23T04:30:04;95938.22;;;3.43;70.14
75146;BME280;63641;46.526;24.612;2022-11-23T04:32:31;95951.06;;;3.46;70.13
75146;BME280;63641;46.526;24.612;2022-11-23T04:34:57;95951.06;;;3.46;70.21
75146;BME280;63641;46.526;24.612;2022-11-23T04:37:24;95949.44;;;3.50;70.21
75146;BME280;63641;46.526;24.612;2022-11-23T04:39:51;95954.25;;;3.48;70.06
75146;BME280;63641;46.526;24.612;2022-11-23T04:42:18;95967.88;;;3.52;70.03
75146;BME280;63641;46.526;24.612;2022-11-23T04:44:45;95961.72;;;3.56;69.90
75146;BME280;63641;46.526;24.612;2022-11-23T04:47:12;95963.84;;;3.59;70.11
75146;BME280;63641;46.526;24.612;2022-11-23T04:49:39;95954.25;;;3.58;70.10
75146;BME280;63641;46.526;24.612;2022-11-23T04:52:06;95959.03;;;3.67;70.04
75146;BME280;63641;46.526;24.612;2022-11-23T04:54:33;95953.16;;;3.70;70.03
75146;BME280;63641;46.526;24.612;2022-11-23T04:56:59;95952.88;;;3.71;70.05
75146;BME280;63641;46.526;24.612;2022-11-23T04:59:26;95944.03;;;3.71;70.37
75146;BME280;63641;46.526;24.612;2022-11-23T05:01:53;95949.94;;;3.73;70.45
75146;BME280;63641;46.526;24.612;2022-11-23T05:04:19;95955.81;;;3.75;70.65
75146;BME280;63641;46.526;24.612;2022-11-23T05:06:46;95950.19;;;3.76;70.68
75146;BME280;63641;46.526;24.612;2022-11-23T05:09:13;95938.16;;;3.74;70.75
75146;BME280;63641;46.526;24.612;2022-11-23T05:11:40;95955.00;;;3.79;70.79
75146;BME280;63641;46.526;24.612;2022-11-23T05:14:06;95949.41;;;3.76;71.03
75146;BME280;63641;46.526;24.612;2022-11-23T05:16:33;95956.31;;;3.82;70.90
75146;BME280;63641;46.526;24.612;2022-11-23T05:19:00;95953.66;;;3.82;70.72
75146;BME280;63641;46.526;24.612;2022-11-23T05:21:27;95965.16;;;3.82;70.91
75146;BME280;63641;46.526;24.612;2022-11-23T05:23:54;95946.19;;;3.74;70.89
75146;BME280;63641;46.526;24.612;2022-11-23T05:26:20;95952.59;;;3.83;70.83
75146;BME280;63641;46.526;24.612;2022-11-23T05:28:47;95955.00;;;3.84;70.71
75146;BME280;63641;46.526;24.612;2022-11-23T05:31:14;95955.50;;;3.86;70.51
75146;BME280;63641;46.526;24.612;2022-11-23T05:33:41;95956.31;;;3.87;70.71
75146;BME280;63641;46.526;24.612;2022-11-23T05:36:08;95963.53;;;3.86;70.75
75146;BME280;63641;46.526;24.612;2022-11-23T05:38:34;95970.22;;;3.89;70.82
75146;BME280;63641;46.526;24.612;2022-11-23T05:41:01;95975.28;;;3.96;70.78
75146;BME280;63641;46.526;24.612;2022-11-23T05:43:28;95971.28;;;3.93;71.17
75146;BME280;63641;46.526;24.612;2022-11-23T05:45:57;95971.81;;;3.90;71.06
75146;BME280;63641;46.526;24.612;2022-11-23T05:48:24;95959.00;;;3.87;71.30
75146;BME280;63641;46.526;24.612;2022-11-23T05:50:51;95953.91;;;3.85;71.72
75146;BME280;63641;46.526;24.612;2022-11-23T05:53:18;95953.09;;;3.85;71.64
75146;BME280;63641;46.526;24.612;2022-11-23T05:55:45;95960.06;;;3.86;71.63
75146;BME280;63641;46.526;24.612;2022-11-23T05:58:11;95949.91;;;3.88;71.50
75146;BME280;63641;46.526;24.612;2022-11-23T06:00:38;95947.72;;;3.90;71.86
75146;BME280;63641;46.526;24.612;2022-11-23T06:03:05;95959.50;;;3.89;71.56
75146;BME280;63641;46.526;24.612;2022-11-23T06:05:32;95972.34;;;3.92;71.92
75146;BME280;63641;46.526;24.612;2022-11-23T06:07:59;95977.72;;;3.92;71.78
75146;BME280;63641;46.526;24.612;2022-11-23T06:10:26;95975.03;;;3.92;71.87
75146;BME280;63641;46.526;24.612;2022-11-23T06:12:53;95987.34;;;3.93;71.94
75146;BME280;63641;46.526;24.612;2022-11-23T06:15:19;95982.50;;;3.90;72.12
75146;BME280;63641;46.526;24.612;2022-11-23T06:17:46;95982.53;;;3.95;71.89
75146;BME280;63641;46.526;24.612;2022-11-23T06:20:13;95998.03;;;3.93;71.94
75146;BME280;63641;46.526;24.612;2022-11-23T06:22:40;95995.91;;;3.95;71.98
75146;BME280;63641;46.526;24.612;2022-11-23T06:25:07;95995.63;;;3.97;72.15
75146;BME280;63641;46.526;24.612;2022-11-23T06:27:34;95990.00;;;3.98;72.28
75146;BME280;63641;46.526;24.612;2022-11-23T06:30:00;95988.38;;;3.97;72.28
75146;BME280;63641;46.526;24.612;2022-11-23T06:32:27;95983.88;;;3.98;72.41
75146;BME280;63641;46.526;24.612;2022-11-23T06:34:54;95983.03;;;3.97;72.38
75146;BME280;63641;46.526;24.612;2022-11-23T06:37:26;95978.50;;;3.98;72.51
75146;BME280;63641;46.526;24.612;2022-11-23T06:39:53;95982.50;;;4.00;72.62
75146;BME280;63641;46.526;24.612;2022-11-23T06:42:19;95994.53;;;4.08;72.58
75146;BME280;63641;46.526;24.612;2022-11-23T06:45:05;96000.13;;;4.11;72.41
75146;BME280;63641;46.526;24.612;2022-11-23T06:47:32;96004.94;;;4.15;72.23
75146;BME280;63641;46.526;24.612;2022-11-23T06:49:59;95985.69;;;4.13;72.37
75146;BME280;63641;46.526;24.612;2022-11-23T06:52:26;95999.06;;;4.18;72.11
75146;BME280;63641;46.526;24.612;2022-11-23T06:54:53;95991.53;;;4.20;71.89
75146;BME280;63641;46.526;24.612;2022-11-23T06:57:19;96000.38;;;4.25;71.92
75146;BME280;63641;46.526;24.612;2022-11-23T06:59:46;96000.63;;;4.29;71.96
75146;BME280;63641;46.526;24.612;2022-11-23T07:02:14;95997.91;;;4.34;71.89
75146;BME280;63641;46.526;24.612;2022-11-23T07:04:40;95992.81;;;4.38;72.17
75146;BME280;63641;46.526;24.612;2022-11-23T07:07:07;95996.81;;;4.40;71.98
75146;BME280;63641;46.526;24.612;2022-11-23T07:09:34;95995.19;;;4.44;72.12
75146;BME280;63641;46.526;24.612;2022-11-23T07:12:01;95992.25;;;4.46;72.14
75146;BME280;63641;46.526;24.612;2022-11-23T07:14:28;95986.34;;;4.49;72.12
75146;BME280;63641;46.526;24.612;2022-11-23T07:16:55;95982.06;;;4.48;72.32
75146;BME280;63641;46.526;24.612;2022-11-23T07:19:22;95980.19;;;4.53;72.61
75146;BME280;63641;46.526;24.612;2022-11-23T07:21:48;95984.97;;;4.56;72.55
75146;BME280;63641;46.526;24.612;2022-11-23T07:24:15;95991.38;;;4.60;72.51
75146;BME280;63641;46.526;24.612;2022-11-23T07:26:42;95991.91;;;4.63;72.42
75146;BME280;63641;46.526;24.612;2022-11-23T07:29:09;95977.97;;;4.66;72.57
75146;BME280;63641;46.526;24.612;2022-11-23T07:31:36;95980.88;;;4.69;72.62
75146;BME280;63641;46.526;24.612;2022-11-23T07:34:03;95964.03;;;4.64;72.44
75146;BME280;63641;46.526;24.612;2022-11-23T07:36:30;95978.72;;;4.76;72.54
75146;BME280;63641;46.526;24.612;2022-11-23T07:38:57;95993.44;;;4.79;72.39
75146;BME280;63641;46.526;24.612;2022-11-23T07:41:24;95996.06;;;4.84;72.36
75146;BME280;63641;46.526;24.612;2022-11-23T07:43:53;95992.56;;;4.89;72.54
75146;BME280;63641;46.526;24.612;2022-11-23T07:46:20;95990.69;;;4.89;72.34
75146;BME280;63641;46.526;24.612;2022-11-23T07:48:47;95991.22;;;4.91;72.17
75146;BME280;63641;46.526;24.612;2022-11-23T07:51:13;95994.94;;;4.95;72.09
75146;BME280;63641;46.526;24.612;2022-11-23T07:53:41;95996.53;;;4.96;72.13
75146;BME280;63641;46.526;24.612;2022-11-23T07:56:08;95989.53;;;5.00;72.20
75146;BME280;63641;46.526;24.612;2022-11-23T07:58:35;95971.00;;;5.04;72.23
75146;BME280;63641;46.526;24.612;2022-11-23T08:01:02;95975.56;;;5.08;71.81
75146;BME280;63641;46.526;24.612;2022-11-23T08:03:29;95969.63;;;5.12;71.87
75146;BME280;63641;46.526;24.612;2022-11-23T08:05:56;95964.84;;;5.08;71.90
75146;BME280;63641;46.526;24.612;2022-11-23T08:08:23;95967.94;;;5.21;71.91
75146;BME280;63641;46.526;24.612;2022-11-23T08:10:49;95966.31;;;5.25;71.79
75146;BME280;63641;46.526;24.612;2022-11-23T08:13:20;95969.22;;;5.28;71.71
75146;BME280;63641;46.526;24.612;2022-11-23T08:15:48;95970.00;;;5.34;71.75
75146;BME280;63641;46.526;24.612;2022-11-23T08:18:22;95960.56;;;5.37;71.64
75146;BME280;63641;46.526;24.612;2022-11-23T08:20:49;95944.81;;;5.30;71.54
75146;BME280;63641;46.526;24.612;2022-11-23T08:23:16;95958.94;;;5.41;71.40
75146;BME280;63641;46.526;24.612;2022-11-23T08:25:43;95953.25;;;5.47;71.71
75146;BME280;63641;46.526;24.612;2022-11-23T08:28:10;95952.38;;;5.52;71.47
75146;BME280;63641;46.526;24.612;2022-11-23T08:30:37;95936.75;;;5.59;71.82
75146;BME280;63641;46.526;24.612;2022-11-23T08:33:05;95915.13;;;5.50;72.03
75146;BME280;63641;46.526;24.612;2022-11-23T08:35:37;95914.97;;;5.66;72.22
75146;BME280;63641;46.526;24.612;2022-11-23T08:38:04;95914.13;;;5.70;72.36
75146;BME280;63641;46.526;24.612;2022-11-23T08:40:32;95906.88;;;5.71;72.30
75146;BME280;63641;46.526;24.612;2022-11-23T08:42:59;95900.34;;;5.77;72.26
75146;BME280;63641;46.526;24.612;2022-11-23T08:45:26;95896.31;;;5.79;72.53
75146;BME280;63641;46.526;24.612;2022-11-23T08:47:52;95874.28;;;5.82;72.53
75146;BME280;63641;46.526;24.612;2022-11-23T08:50:21;95874.72;;;5.90;72.98
75146;BME280;63641;46.526;24.612;2022-11-23T08:52:56;95880.06;;;5.95;73.12
75146;BME280;63641;46.526;24.612;2022-11-23T08:55:24;95886.69;;;6.02;73.20
75146;BME280;63641;46.526;24.612;2022-11-23T08:57:58;95885.25;;;6.10;73.47
75146;BME280;63641;46.526;24.612;2022-11-23T09:00:26;95888.94;;;6.14;73.62
75146;BME280;63641;46.526;24.612;2022-11-23T09:02:53;95895.94;;;6.15;73.46
75146;BME280;63641;46.526;24.612;2022-11-23T09:05:20;95894.53;;;6.18;73.73
75146;BME280;63641;46.526;24.612;2022-11-23T09:07:47;95904.94;;;6.24;73.44
75146;BME280;63641;46.526;24.612;2022-11-23T09:10:14;95917.56;;;6.24;73.57
75146;BME280;63641;46.526;24.612;2022-11-23T09:12:45;95926.16;;;6.26;73.69
75146;BME280;63641;46.526;24.612;2022-11-23T09:15:12;95922.72;;;6.20;73.61
75146;BME280;63641;46.526;24.612;2022-11-23T09:17:39;95923.03;;;6.19;73.47
75146;BME280;63641;46.526;24.612;2022-11-23T09:20:06;95925.09;;;6.22;73.93
75146;BME280;63641;46.526;24.612;2022-11-23T09:22:33;95937.16;;;6.24;73.79
75146;BME280;63641;46.526;24.612;2022-11-23T09:24:59;95942.19;;;6.31;73.52
75146;BME280;63641;46.526;24.612;2022-11-23T09:27:26;95926.88;;;6.32;73.63
75146;BME280;63641;46.526;24.612;2022-11-23T09:29:53;95929.22;;;6.38;73.38
75146;BME280;63641;46.526;24.612;2022-11-23T09:32:20;95927.84;;;6.41;73.33
75146;BME280;63641;46.526;24.612;2022-11-23T09:34:47;95924.06;;;6.42;73.43
75146;BME280;63641;46.526;24.612;2022-11-23T09:37:13;95922.69;;;6.44;73.45
75146;BME280;63641;46.526;24.612;2022-11-23T09:39:40;95919.41;;;6.47;73.32
75146;BME280;63641;46.526;24.612;2022-11-23T09:42:15;95915.56;;;6.53;73.58
75146;BME280;63641;46.526;24.612;2022-11-23T09:50:32;95903.88;;;6.82;73.63
75146;BME280;63641;46.526;24.612;2022-11-23T09:53:06;95904.53;;;6.93;73.35
75146;BME280;63641;46.526;24.612;2022-11-23T09:55:43;95913.75;;;7.06;73.35
75146;BME280;63641;46.526;24.612;2022-11-23T09:58:16;95898.69;;;7.05;73.39
75146;BME280;63641;46.526;24.612;2022-11-23T10:00:59;95901.34;;;7.23;73.25
75146;BME280;63641;46.526;24.612;2022-11-23T10:03:28;95915.22;;;7.31;73.23
75146;BME280;63641;46.526;24.612;2022-11-23T10:11:42;95902.66;;;7.59;73.34
75146;BME280;63641;46.526;24.612;2022-11-23T10:14:17;95891.19;;;7.67;73.23
75146;BME280;63641;46.526;24.612;2022-11-23T10:17:14;95893.19;;;7.75;73.50
75146;BME280;63641;46.526;24.612;2022-11-23T10:19:59;95884.41;;;7.83;73.38
75146;BME280;63641;46.526;24.612;2022-11-23T10:22:34;95881.00;;;7.91;73.20
75146;BME280;63641;46.526;24.612;2022-11-23T10:25:14;95884.31;;;8.02;73.22
75146;BME280;63641;46.526;24.612;2022-11-23T10:27:42;95879.31;;;8.09;73.17
75146;BME280;63641;46.526;24.612;2022-11-23T10:30:12;95884.81;;;8.18;73.30
75146;BME280;63641;46.526;24.612;2022-11-23T10:35:33;95885.50;;;8.37;73.38
75146;BME280;63641;46.526;24.612;2022-11-23T10:38:19;95882.09;;;8.45;73.27
75146;BME280;63641;46.526;24.612;2022-11-23T10:41:05;95888.66;;;8.53;73.12
75146;BME280;63641;46.526;24.612;2022-11-23T10:43:42;95881.56;;;8.57;73.13
75146;BME280;63641;46.526;24.612;2022-11-23T10:49:20;95869.75;;;8.67;72.80
75146;BME280;63641;46.526;24.612;2022-11-23T10:54:28;95859.72;;;8.81;72.84
75146;BME280;63641;46.526;24.612;2022-11-23T10:56:58;95869.00;;;8.89;72.91
75146;BME280;63641;46.526;24.612;2022-11-23T10:59:28;95858.06;;;8.94;72.69
75146;BME280;63641;46.526;24.612;2022-11-23T11:02:12;95860.94;;;8.98;72.73
75146;BME280;63641;46.526;24.612;2022-11-23T11:04:40;95862.44;;;9.04;72.71
75146;BME280;63641;46.526;24.612;2022-11-23T11:09:55;95860.47;;;9.18;72.64
75146;BME280;63641;46.526;24.612;2022-11-23T11:12:23;95860.94;;;9.20;72.50
75146;BME280;63641;46.526;24.612;2022-11-23T11:15:20;95853.34;;;9.22;72.38
75146;BME280;63641;46.526;24.612;2022-11-23T11:17:57;95841.44;;;9.23;72.35
75146;BME280;63641;46.526;24.612;2022-11-23T11:20:30;95846.22;;;9.26;72.09
75146;BME280;63641;46.526;24.612;2022-11-23T11:23:04;95841.34;;;9.28;72.31
75146;BME280;63641;46.526;24.612;2022-11-23T11:25:42;95834.50;;;9.31;71.93
75146;BME280;63641;46.526;24.612;2022-11-23T11:28:24;95829.28;;;9.34;71.82
75146;BME280;63641;46.526;24.612;2022-11-23T11:31:10;95827.56;;;9.38;71.89
75146;BME280;63641;46.526;24.612;2022-11-23T11:33:46;95826.66;;;9.43;72.22
75146;BME280;63641;46.526;24.612;2022-11-23T11:36:18;95832.06;;;9.52;71.89
75146;BME280;63641;46.526;24.612;2022-11-23T11:38:50;95824.66;;;9.57;71.77
75146;BME280;63641;46.526;24.612;2022-11-23T11:41:41;95830.38;;;9.64;71.60
75146;BME280;63641;46.526;24.612;2022-11-23T11:44:19;95827.53;;;9.70;71.47
75146;BME280;63641;46.526;24.612;2022-11-23T11:46:53;95828.19;;;9.75;71.94
75146;BME280;63641;46.526;24.612;2022-11-23T11:49:35;95824.56;;;9.80;71.57
75146;BME280;63641;46.526;24.612;2022-11-23T11:52:33;95822.50;;;9.85;71.62
75146;BME280;63641;46.526;24.612;2022-11-23T11:55:20;95816.50;;;9.88;71.52
75146;BME280;63641;46.526;24.612;2022-11-23T11:57:51;95817.44;;;9.92;71.62
75146;BME280;63641;46.526;24.612;2022-11-23T12:00:22;95820.94;;;9.93;71.57
75146;BME280;63641;46.526;24.612;2022-11-23T12:03:02;95811.09;;;9.88;71.35
75146;BME280;63641;46.526;24.612;2022-11-23T12:05:49;95819.69;;;9.90;71.34
75146;BME280;63641;46.526;24.612;2022-11-23T12:11:02;95826.66;;;9.91;71.06
75146;BME280;63641;46.526;24.612;2022-11-23T12:13:34;95838.75;;;9.94;71.00
75146;BME280;63641;46.526;24.612;2022-11-23T12:19:27;95843.34;;;9.93;70.70
75146;BME280;63641;46.526;24.612;2022-11-23T12:35:24;95835.13;;;9.99;70.23
75146;BME280;63641;46.526;24.612;2022-11-23T12:49:37;95825.41;;;9.98;69.03
75146;BME280;63641;46.526;24.612;2022-11-23T12:52:29;95835.91;;;9.90;68.77
75146;BME280;63641;46.526;24.612;2022-11-23T12:55:49;95829.66;;;9.81;68.51
75146;BME280;63641;46.526;24.612;2022-11-23T12:58:27;95825.31;;;9.72;68.35
75146;BME280;63641;46.526;24.612;2022-11-23T13:11:40;95833.03;;;9.56;68.10
75146;BME280;63641;46.526;24.612;2022-11-23T13:17:24;95829.88;;;9.54;68.09
75146;BME280;63641;46.526;24.612;2022-11-23T13:20:29;95830.16;;;9.52;68.03
75146;BME280;63641;46.526;24.612;2022-11-23T13:22:56;95829.38;;;9.52;67.95
75146;BME280;63641;46.526;24.612;2022-11-23T13:25:28;95826.34;;;9.53;67.99
75146;BME280;63641;46.526;24.612;2022-11-23T13:28:03;95829.56;;;9.55;67.91
75146;BME280;63641;46.526;24.612;2022-11-23T13:30:35;95834.16;;;9.55;67.86
75146;BME280;63641;46.526;24.612;2022-11-23T13:33:36;95833.84;;;9.56;67.80
75146;BME280;63641;46.526;24.612;2022-11-23T13:36:03;95839.22;;;9.56;67.87
75146;BME280;63641;46.526;24.612;2022-11-23T13:38:41;95841.13;;;9.56;68.05
75146;BME280;63641;46.526;24.612;2022-11-23T13:44:19;95829.06;;;9.53;67.89
75146;BME280;63641;46.526;24.612;2022-11-23T13:49:51;95828.25;;;9.53;67.85
75146;BME280;63641;46.526;24.612;2022-11-23T13:57:38;95838.16;;;9.57;67.84
75146;BME280;63641;46.526;24.612;2022-11-23T14:09:05;95835.88;;;9.51;68.01
75146;BME280;63641;46.526;24.612;2022-11-23T14:11:47;95838.88;;;9.49;67.84
75146;BME280;63641;46.526;24.612;2022-11-23T14:14:22;95840.31;;;9.47;68.23
75146;BME280;63641;46.526;24.612;2022-11-23T14:31:27;95847.78;;;9.18;68.35
75146;BME280;63641;46.526;24.612;2022-11-23T14:36:45;95839.75;;;9.05;68.78
75146;BME280;63641;46.526;24.612;2022-11-23T14:42:19;95841.59;;;8.95;69.02
75146;BME280;63641;46.526;24.612;2022-11-23T14:44:47;95846.00;;;8.91;69.01
75146;BME280;63641;46.526;24.612;2022-11-23T14:47:24;95845.81;;;8.88;69.22
75146;BME280;63641;46.526;24.612;2022-11-23T14:49:52;95843.75;;;8.85;69.19
75146;BME280;63641;46.526;24.612;2022-11-23T14:52:33;95840.25;;;8.84;69.13
75146;BME280;63641;46.526;24.612;2022-11-23T14:55:03;95833.38;;;8.78;68.89
75146;BME280;63641;46.526;24.612;2022-11-23T14:57:41;95839.09;;;8.77;69.05
75146;BME280;63641;46.526;24.612;2022-11-23T15:00:25;95834.09;;;8.70;69.21
75146;BME280;63641;46.526;24.612;2022-11-23T15:02:54;95836.91;;;8.65;69.17
75146;BME280;63641;46.526;24.612;2022-11-23T15:05:29;95862.28;;;8.64;69.25
75146;BME280;63641;46.526;24.612;2022-11-23T15:08:15;95858.91;;;8.58;69.14
75146;BME280;63641;46.526;24.612;2022-11-23T15:13:29;95856.66;;;8.38;69.10
75146;BME280;63641;46.526;24.612;2022-11-23T15:15:57;95851.75;;;8.26;69.29
75146;BME280;63641;46.526;24.612;2022-11-23T15:18:32;95858.66;;;8.18;69.17